createdAt,value
2022-09-20T00:00:50.566Z,1.25
2022-09-20T00:03:27.811Z,1.27
2022-09-20T00:05:54.714Z,1.27
2022-09-20T00:08:21.419Z,1.63
2022-09-20T00:10:48.395Z,1.52
2022-09-20T00:13:15.276Z,1.58
2022-09-20T00:15:44.222Z,2.03
2022-09-20T00:18:11.574Z,1.60
2022-09-20T00:20:46.187Z,1.85
2022-09-20T00:23:13.290Z,1.85
2022-09-20T00:25:40.279Z,1.75
2022-09-20T00:28:07.770Z,2.00
2022-09-20T00:30:35.222Z,1.80
2022-09-20T00:33:02.234Z,2.03
2022-09-20T00:35:30.027Z,1.80
2022-09-20T00:37:57.544Z,1.77
2022-09-20T00:40:27.082Z,1.70
2022-09-20T00:42:54.105Z,2.50
2022-09-20T00:45:27.932Z,1.85
2022-09-20T00:47:54.828Z,2.20
2022-09-20T00:50:49.475Z,1.83
2022-09-20T00:53:31.940Z,1.67
2022-09-20T00:56:06.286Z,1.90
2022-09-20T00:58:38.185Z,2.05
2022-09-20T01:01:05.717Z,1.60
2022-09-20T01:03:35.031Z,2.20
2022-09-20T01:06:06.943Z,1.77
2022-09-20T01:08:35.337Z,1.60
2022-09-20T01:11:02.539Z,1.50
2022-09-20T01:13:29.455Z,1.15
2022-09-20T01:16:00.431Z,1.33
2022-09-20T01:18:29.178Z,1.30
2022-09-20T01:20:56.852Z,1.30
2022-09-20T01:23:29.128Z,1.63
2022-09-20T01:26:20.290Z,1.20
2022-09-20T01:28:50.898Z,1.20
2022-09-20T01:31:28.383Z,1.05
2022-09-20T01:34:05.161Z,0.80
2022-09-20T01:36:38.286Z,0.90
2022-09-20T01:39:23.032Z,0.90
2022-09-20T01:42:02.277Z,1.15
2022-09-20T01:45:01.824Z,0.70
2022-09-20T01:47:32.425Z,0.77
2022-09-20T01:50:20.571Z,1.30
2022-09-20T01:53:18.250Z,0.98
2022-09-20T01:55:50.829Z,1.05
2022-09-20T01:58:33.931Z,1.15
2022-09-20T02:01:55.255Z,0.93
2022-09-20T02:04:37.039Z,0.90
2022-09-20T02:07:32.262Z,0.80
2022-09-20T02:10:02.318Z,0.70
2022-09-20T02:12:48.084Z,1.05
2022-09-20T02:15:33.066Z,0.80
2022-09-20T02:18:12.058Z,0.77
2022-09-20T02:20:41.419Z,1.08
2022-09-20T02:23:32.644Z,0.95
2022-09-20T02:26:28.687Z,1.38
2022-09-20T02:29:23.080Z,1.15
2022-09-20T02:32:06.195Z,1.30
2022-09-20T02:35:02.227Z,1.40
2022-09-20T02:37:42.566Z,1.20
2022-09-20T02:40:12.110Z,1.50
2022-09-20T02:42:55.169Z,2.00
2022-09-20T02:45:32.849Z,1.30
2022-09-20T02:48:04.338Z,1.30
2022-09-20T02:50:42.648Z,1.15
2022-09-20T02:53:28.768Z,1.40
2022-09-20T02:56:29.499Z,1.52
2022-09-20T02:59:31.886Z,1.33
2022-09-20T03:02:38.538Z,1.50
2022-09-20T03:05:25.799Z,1.40
2022-09-20T03:08:07.952Z,1.42
2022-09-20T03:10:40.345Z,1.42
2022-09-20T03:13:35.395Z,1.35
2022-09-20T03:16:51.395Z,1.23
2022-09-20T03:19:33.563Z,1.20
2022-09-20T03:22:00.880Z,1.15
2022-09-20T03:24:56.441Z,1.40
2022-09-20T03:27:40.142Z,1.10
2022-09-20T03:30:44.352Z,1.30
2022-09-20T03:33:21.375Z,1.13
2022-09-20T03:35:57.295Z,1.33
2022-09-20T03:39:08.288Z,1.20
2022-09-20T03:42:01.152Z,1.20
2022-09-20T03:44:58.903Z,1.33
2022-09-20T03:47:47.108Z,1.48
2022-09-20T03:50:41.475Z,1.42
2022-09-20T03:53:14.287Z,1.50
2022-09-20T03:56:15.094Z,1.60
2022-09-20T03:59:00.486Z,1.13
2022-09-20T04:01:51.770Z,1.42
2022-09-20T04:04:40.622Z,1.30
2022-09-20T04:07:35.348Z,1.30
2022-09-20T04:10:28.210Z,1.63
2022-09-20T04:13:13.136Z,1.60
2022-09-20T04:16:04.988Z,1.83
2022-09-20T04:18:41.785Z,1.73
2022-09-20T04:21:17.768Z,1.98
2022-09-20T04:23:53.488Z,1.92
2022-09-20T04:26:28.939Z,1.75
2022-09-20T04:29:33.655Z,2.05
2022-09-20T04:32:18.040Z,1.92
2022-09-20T04:35:20.264Z,1.48
2022-09-20T04:37:47.681Z,1.88
2022-09-20T04:40:51.757Z,2.00
2022-09-20T04:43:53.809Z,2.28
2022-09-20T04:46:24.355Z,2.05
2022-09-20T04:49:12.525Z,2.65
2022-09-20T04:52:06.443Z,2.40
2022-09-20T04:54:52.220Z,2.35
2022-09-20T04:57:43.221Z,2.50
2022-09-20T05:00:15.176Z,2.38
2022-09-20T05:03:00.440Z,2.50
2022-09-20T05:05:56.327Z,2.72
2022-09-20T05:09:00.446Z,3.00
2022-09-20T05:11:55.419Z,2.92
2022-09-20T05:14:41.784Z,2.53
2022-09-20T05:17:31.495Z,3.05
2022-09-20T05:20:13.530Z,2.85
2022-09-20T05:23:00.340Z,2.28
2022-09-20T05:26:07.851Z,2.58
2022-09-20T05:28:57.745Z,2.70
2022-09-20T05:31:40.457Z,2.45
2022-09-20T05:34:18.106Z,2.42
2022-09-20T05:37:22.413Z,3.38
2022-09-20T05:39:58.065Z,2.65
2022-09-20T05:42:41.306Z,2.97
2022-09-20T05:45:26.679Z,2.72
2022-09-20T05:48:14.303Z,2.97
2022-09-20T05:50:55.761Z,2.47
2022-09-20T05:53:45.723Z,2.00
2022-09-20T05:56:32.998Z,2.03
2022-09-20T05:59:37.280Z,2.13
2022-09-20T06:02:15.579Z,1.70
2022-09-20T06:04:42.271Z,2.03
2022-09-20T06:07:46.191Z,2.40
2022-09-20T06:10:33.943Z,2.10
2022-09-20T06:13:20.643Z,1.80
2022-09-20T06:16:02.300Z,1.75
2022-09-20T06:18:52.062Z,2.00
2022-09-20T06:21:42.718Z,2.63
2022-09-20T06:24:39.303Z,2.00
2022-09-20T06:27:19.320Z,2.28
2022-09-20T06:29:52.542Z,2.00
2022-09-20T06:32:19.555Z,2.80
2022-09-20T06:34:47.704Z,2.30
2022-09-20T06:38:00.494Z,2.55
2022-09-20T06:41:19.875Z,1.80
2022-09-20T06:43:48.596Z,2.40
2022-09-20T06:46:16.206Z,3.60
2022-09-20T06:48:42.963Z,1.88
2022-09-20T06:51:10.181Z,2.30
2022-09-20T06:53:40.979Z,1.90
2022-09-20T06:56:09.583Z,2.38
2022-09-20T06:58:36.492Z,2.42
2022-09-20T07:01:03.293Z,1.92
2022-09-20T07:03:31.749Z,2.17
2022-09-20T07:06:00.577Z,2.10
2022-09-20T07:08:27.726Z,2.35
2022-09-20T07:10:54.774Z,2.10
2022-09-20T07:13:22.496Z,2.00
2022-09-20T07:15:49.686Z,2.22
2022-09-20T07:18:16.407Z,2.13
2022-09-20T07:20:44.703Z,1.80
2022-09-20T07:23:11.470Z,2.20
2022-09-20T07:25:38.391Z,2.08
2022-09-20T07:28:05.336Z,2.00
2022-09-20T07:30:35.079Z,1.88
2022-09-20T07:33:02.482Z,1.80
2022-09-20T07:35:29.699Z,2.08
2022-09-20T07:37:58.140Z,2.00
2022-09-20T07:40:27.392Z,2.30
2022-09-20T07:42:56.724Z,2.40
2022-09-20T07:45:23.962Z,2.28
2022-09-20T07:47:50.768Z,3.08
2022-09-20T07:50:19.255Z,2.50
2022-09-20T07:52:46.069Z,2.63
2022-09-20T07:55:12.790Z,3.20
2022-09-20T07:57:39.821Z,2.60
2022-09-20T08:00:09.498Z,2.45
2022-09-20T08:02:36.386Z,2.05
2022-09-20T08:05:04.852Z,2.38
2022-09-20T08:07:31.719Z,1.83
2022-09-20T08:09:58.488Z,2.00
2022-09-20T08:15:13.208Z,1.80
2022-09-20T08:17:40.437Z,1.88
2022-09-20T08:20:07.867Z,1.65
2022-09-20T08:22:34.863Z,1.92
2022-09-20T08:25:01.829Z,1.85
2022-09-20T08:27:28.565Z,1.65
2022-09-20T08:29:57.295Z,2.47
2022-09-20T08:32:24.242Z,2.00
2022-09-20T08:34:51.094Z,1.88
2022-09-20T08:37:17.824Z,1.70
2022-09-20T08:40:00.258Z,1.77
2022-09-20T08:42:39.134Z,1.80
2022-09-20T08:45:34.490Z,2.35
2022-09-20T08:48:06.200Z,1.85
2022-09-20T08:50:34.674Z,1.80
2022-09-20T08:53:05.986Z,1.58
2022-09-20T08:55:36.849Z,1.27
2022-09-20T08:58:08.456Z,1.75
2022-09-20T09:00:37.333Z,1.35
2022-09-20T09:03:06.774Z,1.58
2022-09-20T09:05:37.717Z,1.30
2022-09-20T09:08:12.385Z,1.67
2022-09-20T09:10:43.335Z,1.17
2022-09-20T09:13:20.614Z,1.17
2022-09-20T09:15:53.009Z,1.35
2022-09-20T09:18:19.808Z,1.50
2022-09-20T09:20:47.283Z,1.30
2022-09-20T09:23:26.612Z,1.38
2022-09-20T09:25:55.250Z,1.17
2022-09-20T09:28:26.684Z,1.30
2022-09-20T09:31:11.590Z,1.02
2022-09-20T09:33:44.678Z,1.25
2022-09-20T09:36:17.046Z,1.60
2022-09-20T09:38:46.235Z,1.40
2022-09-20T09:41:26.657Z,1.40
2022-09-20T09:44:19.023Z,1.25
2022-09-20T09:46:46.096Z,1.20
2022-09-20T09:49:18.201Z,2.33
2022-09-20T09:52:04.744Z,1.70
2022-09-20T09:54:52.228Z,1.10
2022-09-20T09:57:34.063Z,1.50
2022-09-20T10:00:02.634Z,1.25
2022-09-20T10:02:58.839Z,1.13
2022-09-20T10:05:47.178Z,1.27
2022-09-20T10:08:38.246Z,1.35
2022-09-20T10:11:38.693Z,1.23
2022-09-20T10:14:17.754Z,1.23
2022-09-20T10:17:03.362Z,1.35
2022-09-20T10:19:48.112Z,1.00
2022-09-20T10:22:19.452Z,1.80
2022-09-20T10:25:09.902Z,0.90
2022-09-20T10:28:05.447Z,0.90
2022-09-20T10:30:45.836Z,1.02
2022-09-20T10:33:35.276Z,1.10
2022-09-20T10:36:29.575Z,0.88
2022-09-20T10:39:05.604Z,1.08
2022-09-20T10:42:41.077Z,1.02
2022-09-20T10:45:29.517Z,1.10
2022-09-20T10:48:14.153Z,1.13
2022-09-20T10:51:04.089Z,1.05
2022-09-20T10:54:02.432Z,1.30
2022-09-20T10:56:50.444Z,0.90
2022-09-20T10:59:35.517Z,1.17
2022-09-20T11:02:02.467Z,1.00
2022-09-20T11:04:29.199Z,1.00
2022-09-20T11:07:42.889Z,1.20
2022-09-20T11:10:31.059Z,1.00
2022-09-20T11:13:30.072Z,0.82
2022-09-20T11:16:10.581Z,1.27
2022-09-20T11:18:58.948Z,1.10
2022-09-20T11:21:34.227Z,1.45
2022-09-20T11:24:07.200Z,1.27
2022-09-20T11:26:45.011Z,0.82
2022-09-20T11:29:20.787Z,1.02
2022-09-20T11:31:51.563Z,1.10
2022-09-20T11:34:21.971Z,1.38
2022-09-20T11:37:03.201Z,0.90
2022-09-20T11:39:53.615Z,1.40
2022-09-20T11:42:33.151Z,1.13
2022-09-20T11:45:00.027Z,1.20
2022-09-20T11:47:54.462Z,1.38
2022-09-20T11:50:38.434Z,1.33
2022-09-20T11:53:38.888Z,1.17
2022-09-20T11:56:28.154Z,0.98
2022-09-20T11:58:59.121Z,0.80
2022-09-20T12:01:32.272Z,1.20
2022-09-20T12:04:28.258Z,0.80
2022-09-20T12:07:08.915Z,0.75
2022-09-20T12:09:42.379Z,0.80
2022-09-20T12:12:35.156Z,0.75
2022-09-20T12:15:06.960Z,0.90
2022-09-20T12:17:45.887Z,0.70
2022-09-20T12:20:34.794Z,0.70
2022-09-20T12:23:42.534Z,0.60
2022-09-20T12:26:18.751Z,0.60
2022-09-20T12:28:50.213Z,0.60
2022-09-20T12:31:26.011Z,1.05
2022-09-20T12:34:13.251Z,0.50
2022-09-20T12:36:55.502Z,0.80
2022-09-20T12:39:29.767Z,0.60
2022-09-20T12:42:00.032Z,0.70
2022-09-20T12:44:32.677Z,0.60
2022-09-20T12:47:15.403Z,0.68
2022-09-20T12:50:06.673Z,0.60
2022-09-20T12:52:57.783Z,0.70
2022-09-20T12:55:52.384Z,0.57
2022-09-20T12:58:34.963Z,0.77
2022-09-20T13:01:05.002Z,0.60
2022-09-20T13:03:36.497Z,0.50
2022-09-20T13:06:12.199Z,0.90
2022-09-20T13:09:01.646Z,0.70
2022-09-20T13:11:56.040Z,0.80
2022-09-20T13:14:28.903Z,1.20
2022-09-20T13:17:01.347Z,0.90
2022-09-20T13:19:44.339Z,0.82
2022-09-20T13:22:18.793Z,1.00
2022-09-20T13:24:49.096Z,0.93
2022-09-20T13:27:23.498Z,0.63
2022-09-20T13:29:50.997Z,0.95
2022-09-20T13:32:29.099Z,0.82
2022-09-20T13:35:07.202Z,0.90
2022-09-20T13:37:34.991Z,0.90
2022-09-20T13:40:06.820Z,2.67
2022-09-20T13:42:38.133Z,1.40
2022-09-20T13:45:06.267Z,1.27
2022-09-20T13:47:36.752Z,0.90
2022-09-20T13:50:26.365Z,1.02
2022-09-20T13:52:59.651Z,1.00
2022-09-20T13:55:35.992Z,0.77
2022-09-20T13:58:17.638Z,0.98
2022-09-20T14:00:59.909Z,1.00
2022-09-20T14:03:31.971Z,0.80
2022-09-20T14:06:00.832Z,0.95
2022-09-20T14:08:51.287Z,0.82
2022-09-20T14:11:28.833Z,0.70
2022-09-20T14:13:59.801Z,1.40
2022-09-20T14:16:38.847Z,0.90
2022-09-20T14:19:09.898Z,1.30
2022-09-20T14:21:38.290Z,0.60
2022-09-20T14:24:22.551Z,0.60
2022-09-20T14:27:21.472Z,0.47
2022-09-20T14:29:55.119Z,0.60
2022-09-20T14:32:33.695Z,0.40
2022-09-20T14:35:16.035Z,0.32
2022-09-20T14:38:06.909Z,0.75
2022-09-20T14:40:44.043Z,1.38
2022-09-20T14:43:37.425Z,0.40
2022-09-20T14:46:09.318Z,0.40
2022-09-20T14:48:40.646Z,0.60
2022-09-20T14:51:18.968Z,0.32
2022-09-20T14:53:51.371Z,0.30
2022-09-20T14:56:34.074Z,0.50
2022-09-20T14:59:11.537Z,0.43
2022-09-20T15:01:42.596Z,0.45
2022-09-20T15:04:22.531Z,0.40
2022-09-20T15:06:50.820Z,0.52
2022-09-20T15:09:19.565Z,0.52
2022-09-20T15:11:47.057Z,0.30
2022-09-20T15:14:13.896Z,0.63
2022-09-20T15:16:41.112Z,0.47
2022-09-20T15:19:09.428Z,0.50
2022-09-20T15:21:36.434Z,0.52
2022-09-20T15:24:03.572Z,0.50
2022-09-20T15:26:32.516Z,0.70
2022-09-20T15:29:00.079Z,0.73
2022-09-20T15:31:28.118Z,1.00
2022-09-20T15:33:54.991Z,0.63
2022-09-20T15:36:21.779Z,0.70
2022-09-20T15:38:48.888Z,0.60
2022-09-20T15:41:15.661Z,0.60
2022-09-20T15:43:43.361Z,0.90
2022-09-20T15:46:20.104Z,0.45
2022-09-20T15:48:47.385Z,0.98
2022-09-20T15:51:15.335Z,0.70
2022-09-20T15:53:46.387Z,1.00
2022-09-20T15:56:37.340Z,0.85
2022-09-20T15:59:07.148Z,0.70
2022-09-20T16:01:41.916Z,1.10
2022-09-20T16:04:11.120Z,1.40
2022-09-20T16:06:39.969Z,1.33
2022-09-20T16:09:07.660Z,1.10
2022-09-20T16:11:35.395Z,1.17
2022-09-20T16:14:02.963Z,1.73
2022-09-20T16:16:31.916Z,1.27
2022-09-20T16:19:19.697Z,1.35
2022-09-20T16:21:59.218Z,1.33
2022-09-20T16:24:38.219Z,1.60
2022-09-20T16:27:07.823Z,1.42
2022-09-20T16:29:34.965Z,1.60
2022-09-20T16:32:03.843Z,2.00
2022-09-20T16:34:35.950Z,1.73
2022-09-20T16:37:07.984Z,1.80
2022-09-20T16:39:40.842Z,1.80
2022-09-20T16:42:12.076Z,2.42
2022-09-20T16:44:43.272Z,2.03
2022-09-20T16:47:21.987Z,1.80
2022-09-20T16:49:50.108Z,2.00
2022-09-20T16:52:18.374Z,1.80
2022-09-20T16:54:45.907Z,1.92
2022-09-20T16:57:21.005Z,1.50
2022-09-20T16:59:48.275Z,1.77
2022-09-20T17:02:17.949Z,2.30
2022-09-20T17:04:48.568Z,1.80
2022-09-20T17:07:18.215Z,2.35
2022-09-20T17:09:45.181Z,2.35
2022-09-20T17:12:13.663Z,1.80
2022-09-20T17:14:40.708Z,2.22
2022-09-20T17:17:07.553Z,2.20
2022-09-20T17:19:34.394Z,1.73
2022-09-20T17:22:01.853Z,1.92
2022-09-20T17:24:33.304Z,2.03
2022-09-20T17:27:01.288Z,1.80
2022-09-20T17:29:28.385Z,1.90
2022-09-20T17:31:59.598Z,1.75
2022-09-20T17:34:28.062Z,2.05
2022-09-20T17:36:55.486Z,1.75
2022-09-20T17:39:23.026Z,1.55
2022-09-20T17:41:50.835Z,1.92
2022-09-20T17:44:19.437Z,2.05
2022-09-20T17:46:49.582Z,2.00
2022-09-20T17:49:21.921Z,2.20
2022-09-20T17:51:54.491Z,2.05
2022-09-20T17:54:22.515Z,2.50
2022-09-20T17:56:51.829Z,1.92
2022-09-20T17:59:20.409Z,1.98
2022-09-20T18:01:49.924Z,2.05
2022-09-20T18:04:17.720Z,2.35
2022-09-20T18:06:47.550Z,2.33
2022-09-20T18:09:17.857Z,1.80
2022-09-20T18:11:49.942Z,2.55
2022-09-20T18:14:20.514Z,2.23
2022-09-20T18:16:47.695Z,2.40
2022-09-20T18:19:16.186Z,1.95
2022-09-20T18:21:43.902Z,2.55
2022-09-20T18:24:11.819Z,2.38
2022-09-20T18:26:39.149Z,2.88
2022-09-20T18:29:12.245Z,2.78
2022-09-20T18:31:47.334Z,2.50
2022-09-20T18:34:20.743Z,2.55
2022-09-20T18:36:53.101Z,2.70
2022-09-20T18:39:21.657Z,2.55
2022-09-20T18:41:49.643Z,2.72
2022-09-20T18:44:18.485Z,2.95
2022-09-20T18:46:46.445Z,3.30
2022-09-20T18:49:15.138Z,2.85
2022-09-20T18:51:43.227Z,3.15
2022-09-20T18:54:11.802Z,2.80
2022-09-20T18:56:43.829Z,2.65
2022-09-20T18:59:16.301Z,3.00
2022-09-20T19:01:55.706Z,2.67
2022-09-20T19:04:44.322Z,2.50
2022-09-20T19:07:17.264Z,3.28
2022-09-20T19:09:52.961Z,2.50
2022-09-20T19:12:20.051Z,3.10
2022-09-20T19:15:16.029Z,2.33
2022-09-20T19:18:23.584Z,2.53
2022-09-20T19:21:09.368Z,2.83
2022-09-20T19:23:39.383Z,3.10
2022-09-20T19:26:25.642Z,2.65
2022-09-20T19:28:57.977Z,2.97
2022-09-20T19:31:30.659Z,2.42
2022-09-20T19:34:00.214Z,1.83
2022-09-20T19:36:39.623Z,2.35
2022-09-20T19:39:23.319Z,2.30
2022-09-20T19:41:58.133Z,2.60
2022-09-20T19:44:43.516Z,2.22
2022-09-20T19:47:45.029Z,2.08
2022-09-20T19:50:33.211Z,2.03
2022-09-20T19:53:04.234Z,1.92
2022-09-20T19:55:33.563Z,2.20
2022-09-20T19:58:01.010Z,2.65
2022-09-20T20:00:28.063Z,1.80
2022-09-20T20:02:55.415Z,2.58
2022-09-20T20:05:27.640Z,2.80
2022-09-20T20:08:36.006Z,2.70
2022-09-20T20:11:43.651Z,2.53
2022-09-20T20:14:23.929Z,2.40
2022-09-20T20:17:11.918Z,2.60
2022-09-20T20:20:00.792Z,2.47
2022-09-20T20:22:47.811Z,2.20
2022-09-20T20:25:28.692Z,2.03
2022-09-20T20:27:55.631Z,2.15
2022-09-20T20:30:22.373Z,2.53
2022-09-20T20:32:51.254Z,2.08
2022-09-20T20:35:19.293Z,2.75
2022-09-20T20:37:47.476Z,2.13
2022-09-20T20:40:14.902Z,2.10
2022-09-20T20:42:42.829Z,2.33
2022-09-20T20:45:10.270Z,2.30
2022-09-20T20:47:37.444Z,1.98
2022-09-20T20:50:07.582Z,2.40
2022-09-20T20:52:34.422Z,2.63
2022-09-20T20:55:01.228Z,2.33
2022-09-20T20:57:28.347Z,2.28
2022-09-20T20:59:55.111Z,2.38
2022-09-20T21:02:21.925Z,2.30
2022-09-20T21:04:48.935Z,2.25
2022-09-20T21:07:16.292Z,2.80
2022-09-20T21:09:43.142Z,2.22
2022-09-20T21:12:10.104Z,2.55
2022-09-20T21:14:37.253Z,1.83
2022-09-20T21:17:04.560Z,2.08
2022-09-20T21:19:31.518Z,2.75
2022-09-20T21:21:58.254Z,2.58
2022-09-20T21:24:24.971Z,2.17
2022-09-20T21:26:52.928Z,2.40
2022-09-20T21:29:20.722Z,2.85
2022-09-20T21:31:47.477Z,2.53
2022-09-20T21:34:15.787Z,2.15
2022-09-20T21:36:43.919Z,2.70
2022-09-20T21:39:10.939Z,2.50
2022-09-20T21:41:39.304Z,2.08
2022-09-20T21:44:07.364Z,2.58
2022-09-20T21:46:40.197Z,2.53
2022-09-20T21:49:09.859Z,2.08
2022-09-20T21:51:38.650Z,2.38
2022-09-20T21:54:05.713Z,2.20
2022-09-20T21:56:37.415Z,2.30
2022-09-20T21:59:06.116Z,2.60
2022-09-20T22:01:36.614Z,2.53
2022-09-20T22:04:08.734Z,2.70
2022-09-20T22:06:38.452Z,2.65
2022-09-20T22:09:13.903Z,2.97
2022-09-20T22:11:43.587Z,3.08
2022-09-20T22:14:11.983Z,2.97
2022-09-20T22:16:42.098Z,3.03
2022-09-20T22:19:14.763Z,2.97
2022-09-20T22:21:44.130Z,3.53
2022-09-20T22:24:12.591Z,3.08
2022-09-20T22:26:42.562Z,3.25
2022-09-20T22:29:10.032Z,3.55
2022-09-20T22:31:45.458Z,3.50
2022-09-20T22:34:20.382Z,2.95
2022-09-20T22:36:47.602Z,3.60
2022-09-20T22:39:15.696Z,3.30
2022-09-20T22:41:43.291Z,3.55
2022-09-20T22:44:10.617Z,3.50
2022-09-20T22:46:38.433Z,3.40
2022-09-20T22:49:06.477Z,4.15
2022-09-20T22:51:34.441Z,3.70
2022-09-20T22:54:06.252Z,3.55
2022-09-20T22:56:33.154Z,3.08
2022-09-20T22:59:11.723Z,4.07
2022-09-20T23:01:49.064Z,3.80
2022-09-20T23:04:18.980Z,3.85
2022-09-20T23:06:48.011Z,3.58
2022-09-20T23:09:17.732Z,3.65
2022-09-20T23:11:45.248Z,4.85
2022-09-20T23:14:14.750Z,3.83
2022-09-20T23:16:42.270Z,3.70
2022-09-20T23:19:10.169Z,3.70
2022-09-20T23:21:38.653Z,3.92
2022-09-20T23:24:08.309Z,3.83
2022-09-20T23:26:37.154Z,3.78
2022-09-20T23:29:07.070Z,3.95
2022-09-20T23:31:36.439Z,3.47
2022-09-20T23:34:06.068Z,3.40
2022-09-20T23:36:35.134Z,3.42
2022-09-20T23:39:01.919Z,3.83
2022-09-20T23:41:30.278Z,3.30
2022-09-20T23:43:57.491Z,3.60
2022-09-20T23:46:26.383Z,3.88
2022-09-20T23:48:53.535Z,4.00
2022-09-20T23:51:24.298Z,3.70
2022-09-20T23:53:53.049Z,3.75
2022-09-20T23:56:21.725Z,3.63
2022-09-20T23:58:49.126Z,3.30
